Time;durP1;ratioP1;P1;durP2;ratioP2;P2;SDS_P1;SDS_P2;PMS_P1;PMS_P2;Temp;Humidity;BMP_temperature;BMP_pressure;BME280_temperature;BME280_humidity;BME280_pressure;Samples;Min_cycle;Max_cycle;Signal;HPM_P1;HPM_P2
2022/10/05 00:01:33;;;;;;;11.07;6.20;;;;;;;13.01;93.78;101382.75;4992481;28;20221;-51
2022/10/05 00:04:11;;;;;;;10.32;6.20;;;;;;;13.04;93.85;101382.63;5000539;28;20282;-49
2022/10/05 00:06:36;;;;;;;11.70;6.72;;;;;;;12.99;94.02;101384.63;4995189;28;20188;-49
2022/10/05 00:09:22;;;;;;;10.98;6.15;;;;;;;12.97;93.92;101383.81;4992673;28;20275;-48
2022/10/05 00:11:48;;;;;;;9.90;6.70;;;;;;;12.96;94.17;101382.03;4994962;28;20202;-49
2022/10/05 00:14:29;;;;;;;10.27;6.43;;;;;;;12.96;94.43;101385.59;4994474;28;20190;-48
2022/10/05 00:16:55;;;;;;;12.20;6.68;;;;;;;13.00;94.30;101372.91;4997322;28;20691;-49
2022/10/05 00:19:35;;;;;;;10.38;6.80;;;;;;;13.01;94.11;101382.75;4998866;28;20188;-49
2022/10/05 00:22:14;;;;;;;7.85;6.07;;;;;;;12.98;94.11;101372.97;4997495;28;20266;-48
2022/10/05 00:24:39;;;;;;;13.38;6.10;;;;;;;12.98;94.49;101375.66;4999845;28;20189;-50
2022/10/05 00:27:20;;;;;;;16.63;6.65;;;;;;;12.99;94.30;101358.59;4991577;28;20318;-49
2022/10/05 00:29:48;;;;;;;9.45;5.95;;;;;;;13.01;94.25;101371.09;4997039;28;20200;-49
2022/10/05 00:32:13;;;;;;;11.00;6.35;;;;;;;12.97;94.29;101362.28;4993072;28;20236;-50
2022/10/05 00:34:40;;;;;;;9.95;6.18;;;;;;;13.00;94.31;101367.53;4995263;28;20272;-47
2022/10/05 00:37:06;;;;;;;10.15;6.20;;;;;;;12.99;94.29;101373.84;4999842;28;20196;-49
2022/10/05 00:39:33;;;;;;;11.35;6.40;;;;;;;12.96;94.43;101357.81;4993003;28;20177;-48
2022/10/05 00:42:01;;;;;;;9.77;6.50;;;;;;;12.96;94.28;101360.50;4996257;28;20300;-49
2022/10/05 00:44:36;;;;;;;11.13;7.30;;;;;;;13.02;94.40;101356.72;4992409;28;20248;-49
2022/10/05 00:47:33;;;;;;;11.90;6.60;;;;;;;12.98;94.40;101350.56;5005333;28;20706;-50
2022/10/05 00:50:31;;;;;;;10.40;6.32;;;;;;;13.00;94.51;101351.38;4996538;28;20193;-50
2022/10/05 00:53:30;;;;;;;14.95;6.43;;;;;;;13.04;94.52;101342.25;4992663;28;20181;-48
2022/10/05 00:56:05;;;;;;;12.30;6.78;;;;;;;12.97;94.52;101333.56;4977833;28;20228;-49
2022/10/05 00:58:49;;;;;;;11.88;6.68;;;;;;;12.98;94.71;101331.75;4988995;28;20196;-49
2022/10/05 01:01:47;;;;;;;9.70;6.68;;;;;;;12.96;94.83;101326.41;4996790;28;20260;-49
2022/10/05 01:04:25;;;;;;;11.02;7.22;;;;;;;12.95;94.95;101329.19;4985926;28;20204;-51
2022/10/05 01:07:15;;;;;;;10.70;6.45;;;;;;;12.97;95.07;101324.63;5004192;28;20213;-50
2022/10/05 01:09:52;;;;;;;9.13;7.20;;;;;;;12.99;95.14;101312.88;4992592;28;20193;-49
2022/10/05 01:12:36;;;;;;;12.73;7.30;;;;;;;12.98;94.84;101320.97;4990942;28;20328;-50
2022/10/05 01:15:11;;;;;;;14.95;6.75;;;;;;;13.03;94.87;101321.69;5004113;28;20563;-50
2022/10/05 01:17:36;;;;;;;13.38;6.60;;;;;;;12.99;95.01;101320.06;4996944;28;20184;-50
2022/10/05 01:20:23;;;;;;;12.80;7.32;;;;;;;12.97;95.05;101321.94;5007080;28;20552;-49
2022/10/05 01:23:16;;;;;;;13.73;7.07;;;;;;;12.99;95.29;101312.88;5002072;28;20193;-50
2022/10/05 01:26:17;;;;;;;14.48;7.65;;;;;;;13.01;95.49;101306.53;4999924;28;20216;-46
2022/10/05 01:28:51;;;;;;;10.77;7.30;;;;;;;12.97;95.45;101306.66;4997831;28;20273;-48
2022/10/05 01:31:42;;;;;;;11.05;7.38;;;;;;;12.98;95.65;101315.59;4998111;28;20319;-46
2022/10/05 01:34:32;;;;;;;8.65;6.80;;;;;;;13.04;95.69;101306.44;5007617;28;20197;-47
2022/10/05 01:37:21;;;;;;;9.77;7.47;;;;;;;13.01;95.75;101309.22;5000825;28;20721;-48
2022/10/05 01:40:12;;;;;;;9.98;6.55;;;;;;;13.03;95.88;101300.19;4997949;28;20657;-48
2022/10/05 01:43:02;;;;;;;11.48;7.35;;;;;;;12.95;96.17;101294.22;4999150;28;20189;-50
2022/10/05 01:45:41;;;;;;;15.88;7.40;;;;;;;12.98;96.17;101283.31;5006589;28;20596;-48
2022/10/05 01:48:15;;;;;;;12.65;7.68;;;;;;;12.95;96.34;101280.78;5009852;28;20204;-47
2022/10/05 01:50:55;;;;;;;10.77;7.50;;;;;;;12.96;96.46;101282.50;5013634;28;20279;-47
2022/10/05 01:53:35;;;;;;;10.38;7.55;;;;;;;12.95;96.59;101284.34;5009265;28;20192;-48
2022/10/05 01:56:23;;;;;;;12.63;7.47;;;;;;;12.95;96.52;101286.16;4999092;28;20197;-47
2022/10/05 01:59:17;;;;;;;13.02;7.50;;;;;;;12.92;96.85;101288.94;5008641;28;20177;-47
2022/10/05 02:02:07;;;;;;;12.70;7.47;;;;;;;12.93;96.88;101290.72;4997531;28;20224;-49
2022/10/05 02:04:40;;;;;;;9.75;7.38;;;;;;;12.93;97.15;101286.22;5003964;28;20666;-48
2022/10/05 02:07:13;;;;;;;12.32;7.90;;;;;;;12.95;97.19;101286.16;5009909;28;20220;-47
2022/10/05 02:09:53;;;;;;;9.52;7.13;;;;;;;12.95;97.21;101291.53;4991957;28;20224;-50
2022/10/05 02:12:24;;;;;;;9.70;7.55;;;;;;;12.90;97.17;101298.91;4998013;28;20217;-47
2022/10/05 02:14:56;;;;;;;11.23;7.45;;;;;;;12.92;97.62;101283.56;5007671;28;20177;-50
2022/10/05 02:17:54;;;;;;;12.45;7.32;;;;;;;12.90;97.64;101280.97;4998782;28;20177;-47
2022/10/05 02:20:24;;;;;;;12.50;7.63;;;;;;;12.93;97.82;101279.97;4990368;28;20223;-47
2022/10/05 02:22:53;;;;;;;11.20;7.45;;;;;;;12.90;97.74;101291.72;4998133;28;20291;-48
2022/10/05 02:25:25;;;;;;;12.45;7.80;;;;;;;12.87;98.11;101281.06;5003500;28;20181;-47
2022/10/05 02:28:23;;;;;;;11.75;7.97;;;;;;;12.92;98.27;101284.47;4998185;28;20205;-47
2022/10/05 02:30:55;;;;;;;14.00;8.15;;;;;;;12.92;97.89;101280.88;5006801;28;20208;-49
2022/10/05 02:33:29;;;;;;;11.77;7.47;;;;;;;12.97;98.21;101274.38;4999698;28;20223;-52
2022/10/05 02:36:16;;;;;;;19.65;7.38;;;;;;;12.95;98.04;101270.03;4983876;28;20185;-49
2022/10/05 02:38:47;;;;;;;11.30;7.63;;;;;;;12.93;98.33;101266.50;4992493;28;20189;-48
2022/10/05 02:41:34;;;;;;;14.13;8.48;;;;;;;12.92;98.38;101273.72;4999807;28;20619;-48
2022/10/05 02:44:07;;;;;;;10.90;7.43;;;;;;;12.92;98.56;101262.06;5006428;28;20185;-47
2022/10/05 02:46:54;;;;;;;12.75;8.25;;;;;;;12.91;98.50;101254.94;5009626;28;20173;-49
2022/10/05 02:49:43;;;;;;;10.60;8.32;;;;;;;12.95;98.51;101254.75;4994714;28;20216;-49
2022/10/05 02:52:36;;;;;;;11.02;8.05;;;;;;;12.95;98.54;101251.19;5007663;28;20290;-50
2022/10/05 02:55:14;;;;;;;11.82;7.60;;;;;;;12.94;98.52;101250.31;4991101;28;20185;-51
2022/10/05 02:58:00;;;;;;;15.73;7.63;;;;;;;12.97;98.40;101254.69;4998430;28;20208;-49
2022/10/05 03:00:32;;;;;;;10.55;7.63;;;;;;;12.93;98.54;101245.88;4999622;28;20213;-51
2022/10/05 03:03:10;;;;;;;13.45;7.45;;;;;;;12.94;98.73;101249.44;4995450;28;20192;-51
2022/10/05 03:05:38;;;;;;;11.75;8.10;;;;;;;12.91;98.69;101244.19;5007157;28;20287;-47
2022/10/05 03:08:38;;;;;;;12.32;7.60;;;;;;;12.89;99.02;101240.69;5005350;28;20289;-48
2022/10/05 03:11:12;;;;;;;9.73;7.35;;;;;;;12.87;99.29;101243.44;4991612;28;20252;-47
2022/10/05 03:13:38;;;;;;;11.57;7.57;;;;;;;12.86;99.46;101232.75;4991268;28;20248;-50
2022/10/05 03:16:41;;;;;;;9.90;7.63;;;;;;;12.85;99.55;101231.00;5007104;28;20679;-51
2022/10/05 03:19:35;;;;;;;15.05;7.82;;;;;;;12.87;99.74;101229.13;4994413;28;20188;-47
2022/10/05 03:22:22;;;;;;;14.02;7.50;;;;;;;12.81;99.72;101219.47;4962249;28;20246;-50
2022/10/05 03:25:13;;;;;;;15.88;7.88;;;;;;;12.82;100.00;101225.75;4991784;28;20185;-48
2022/10/05 03:28:09;;;;;;;12.25;7.65;;;;;;;12.86;100.00;101220.19;5005620;28;20214;-48
2022/10/05 03:30:50;;;;;;;10.57;7.93;;;;;;;12.85;100.00;101220.22;5014105;28;20213;-50
2022/10/05 03:33:28;;;;;;;11.40;7.63;;;;;;;12.84;100.00;101226.56;5014867;28;20181;-48
2022/10/05 03:36:19;;;;;;;14.50;7.35;;;;;;;12.81;100.00;101227.53;4998049;28;20271;-48
2022/10/05 03:39:03;;;;;;;10.40;7.10;;;;;;;12.83;100.00;101225.66;4993187;28;20192;-48
2022/10/05 03:41:52;;;;;;;11.20;7.72;;;;;;;12.85;100.00;101217.53;5007051;28;20764;-46
2022/10/05 03:44:47;;;;;;;13.07;7.70;;;;;;;12.85;100.00;101206.78;5004923;28;20518;-51
2022/10/05 03:47:31;;;;;;;11.23;7.68;;;;;;;12.85;100.00;101222.91;4997594;28;20197;-48
2022/10/05 03:50:00;;;;;;;9.00;8.00;;;;;;;12.85;100.00;101222.91;5006302;28;20197;-48
2022/10/05 03:52:37;;;;;;;17.08;8.32;;;;;;;12.89;100.00;101216.47;5000523;28;20221;-46
2022/10/05 03:55:16;;;;;;;13.65;8.00;;;;;;;12.88;100.00;101220.09;5005675;28;20193;-50
2022/10/05 03:57:43;;;;;;;11.20;7.55;;;;;;;12.86;100.00;101213.94;4991597;28;20188;-50
2022/10/05 04:00:14;;;;;;;11.10;8.27;;;;;;;12.87;100.00;101215.66;4995088;28;20211;-47
2022/10/05 04:02:54;;;;;;;11.23;8.35;;;;;;;12.87;100.00;101219.22;4997790;28;20713;-49
2022/10/05 04:05:26;;;;;;;15.02;8.10;;;;;;;12.86;100.00;101216.63;5006573;28;20192;-48
2022/10/05 04:08:11;;;;;;;11.90;8.65;;;;;;;12.93;100.00;101223.47;4995660;28;20204;-47
2022/10/05 04:10:50;;;;;;;12.68;8.30;;;;;;;12.91;100.00;101214.59;5006251;28;20303;-48
2022/10/05 04:13:26;;;;;;;19.67;9.20;;;;;;;12.88;100.00;101196.78;4995009;28;20181;-47
2022/10/05 04:16:16;;;;;;;10.48;8.45;;;;;;;12.92;100.00;101203.78;5003133;28;20181;-47
2022/10/05 04:18:53;;;;;;;12.63;8.27;;;;;;;12.90;100.00;101210.16;5004845;28;20240;-47
2022/10/05 04:21:24;;;;;;;10.90;9.15;;;;;;;12.92;100.00;101213.66;5003980;28;20336;-45
2022/10/05 04:23:57;;;;;;;12.57;9.02;;;;;;;12.94;100.00;101209.09;4996277;28;20169;-48
2022/10/05 04:27:04;;;;;;;14.40;8.07;;;;;;;12.92;100.00;101209.16;4993663;28;20217;-44
2022/10/05 04:29:36;;;;;;;9.93;8.50;;;;;;;12.87;100.00;101213.84;5005224;28;20255;-45
2022/10/05 04:32:20;;;;;;;14.82;8.68;;;;;;;12.91;100.00;101202.03;5003024;28;20217;-45
2022/10/05 04:34:56;;;;;;;13.35;8.65;;;;;;;12.90;100.00;101199.38;5006505;28;20203;-44
2022/10/05 04:37:46;;;;;;;13.93;8.93;;;;;;;12.92;100.00;101194.81;4989375;28;20197;-45
2022/10/05 04:40:24;;;;;;;13.52;9.00;;;;;;;12.94;100.00;101195.63;5006636;28;20181;-46
2022/10/05 04:43:01;;;;;;;15.77;8.98;;;;;;;12.93;100.00;101188.53;5005282;28;20317;-47
2022/10/05 04:45:46;;;;;;;10.75;8.93;;;;;;;12.88;100.00;101186.03;4998728;28;20272;-47
2022/10/05 04:48:43;;;;;;;15.20;9.20;;;;;;;12.90;100.00;101178.78;4993726;28;20766;-45
2022/10/05 04:51:30;;;;;;;11.27;8.68;;;;;;;12.94;100.00;101164.25;5004984;28;20705;-44
2022/10/05 04:54:10;;;;;;;14.15;8.63;;;;;;;13.01;100.00;101167.56;5006874;28;20215;-42
2022/10/05 04:56:40;;;;;;;12.18;9.20;;;;;;;12.95;100.00;101152.53;4994725;28;20195;-44
2022/10/05 04:59:21;;;;;;;12.52;8.50;;;;;;;12.94;100.00;101158.88;4999278;28;20538;-46
2022/10/05 05:02:19;;;;;;;12.38;9.02;;;;;;;12.89;100.00;101176.13;5000259;28;20200;-46
2022/10/05 05:04:51;;;;;;;10.95;8.38;;;;;;;12.83;100.00;101171.88;5009371;28;20180;-46
2022/10/05 05:07:22;;;;;;;9.57;8.30;;;;;;;12.86;100.00;101170.91;4993889;28;20201;-44
2022/10/05 05:10:25;;;;;;;12.07;8.55;;;;;;;12.87;100.00;101164.56;4994348;28;20194;-46
2022/10/05 05:13:26;;;;;;;9.98;8.50;;;;;;;12.86;100.00;101154.78;4998663;28;20204;-46
2022/10/05 05:16:03;;;;;;;13.18;8.88;;;;;;;12.89;100.00;101155.50;4998537;28;20671;-44
2022/10/05 05:18:35;;;;;;;10.20;8.23;;;;;;;12.85;100.00;101163.75;4991929;28;20172;-45
2022/10/05 05:21:00;;;;;;;10.38;8.90;;;;;;;12.85;100.00;101161.94;4999128;28;20220;-46
2022/10/05 05:23:36;;;;;;;11.15;8.55;;;;;;;12.81;100.00;101159.44;4994348;28;20173;-43
2022/10/05 05:26:18;;;;;;;13.30;8.93;;;;;;;12.82;100.00;101154.00;5013438;28;20188;-45
2022/10/05 05:28:58;;;;;;;14.90;8.60;;;;;;;12.84;100.00;101156.66;5001507;28;20209;-45
2022/10/05 05:32:07;;;;;;;13.13;8.65;;;;;;;12.84;100.00;101159.34;4998203;28;20208;-47
2022/10/05 05:34:48;;;;;;;11.18;9.25;;;;;;;12.82;100.00;101139.69;4989929;28;20661;-46
2022/10/05 05:37:35;;;;;;;11.95;8.25;;;;;;;12.86;100.00;101139.50;5007266;28;20527;-45
2022/10/05 05:40:16;;;;;;;12.15;9.07;;;;;;;12.86;100.00;101136.81;5008361;28;20262;-44
2022/10/05 05:43:15;;;;;;;11.00;8.88;;;;;;;12.82;100.00;101139.69;4999364;28;20185;-44
2022/10/05 05:45:46;;;;;;;12.60;8.95;;;;;;;12.82;100.00;101129.81;4978332;28;20181;-44
2022/10/05 05:48:29;;;;;;;12.00;9.23;;;;;;;12.76;100.00;101128.25;5007508;28;20217;-44
2022/10/05 05:51:47;;;;;;;11.85;8.00;;;;;;;12.72;100.00;101126.63;5007220;28;20308;-47
2022/10/05 05:54:36;;;;;;;14.88;9.57;;;;;;;12.80;100.00;101126.31;4992984;28;20290;-49
2022/10/05 05:57:23;;;;;;;11.10;8.73;;;;;;;12.74;100.00;101142.69;4995787;28;20256;-48
2022/10/05 06:00:12;;;;;;;12.07;9.32;;;;;;;12.75;100.00;101136.41;5001075;28;20173;-47
2022/10/05 06:03:13;;;;;;;11.10;8.68;;;;;;;12.76;100.00;101136.31;5009139;28;20195;-48
2022/10/05 06:05:43;;;;;;;11.07;9.02;;;;;;;12.76;100.00;101124.69;5002752;28;20181;-46
2022/10/05 06:08:18;;;;;;;11.77;8.65;;;;;;;12.80;100.00;101130.81;5001388;28;20234;-48
2022/10/05 06:10:52;;;;;;;10.55;8.15;;;;;;;12.88;100.00;101134.94;5005188;28;20204;-48
2022/10/05 06:13:25;;;;;;;11.57;8.88;;;;;;;12.91;100.00;101121.34;4989256;28;20178;-49
2022/10/05 06:16:07;;;;;;;10.50;8.50;;;;;;;12.88;100.00;101128.66;5000054;28;20185;-49
2022/10/05 06:18:35;;;;;;;14.55;8.75;;;;;;;12.89;100.00;101123.22;4997103;28;20599;-49
2022/10/05 06:21:03;;;;;;;14.65;9.90;;;;;;;12.85;100.00;101126.97;5002542;28;20292;-49
2022/10/05 06:23:51;;;;;;;13.75;9.23;;;;;;;12.84;100.00;101136.00;4997952;28;20178;-48
2022/10/05 06:26:28;;;;;;;12.43;9.20;;;;;;;12.84;100.00;101129.75;5003984;28;20181;-49
2022/10/05 06:29:00;;;;;;;12.80;9.05;;;;;;;12.89;100.00;101125.03;4998591;28;20205;-48
2022/10/05 06:31:41;;;;;;;10.00;8.50;;;;;;;12.88;100.00;101118.81;4998960;28;20224;-47
2022/10/05 06:34:14;;;;;;;16.52;9.55;;;;;;;12.90;100.00;101129.47;5005820;28;20260;-48
2022/10/05 06:36:54;;;;;;;10.57;9.10;;;;;;;12.91;100.00;101133.91;5002723;28;20185;-48
2022/10/05 06:40:03;;;;;;;11.98;8.48;;;;;;;12.92;100.00;101133.88;4997375;28;20184;-47
2022/10/05 06:42:53;;;;;;;10.73;9.68;;;;;;;12.96;100.00;101139.97;4973183;28;20251;-46
2022/10/05 06:45:57;;;;;;;10.00;8.77;;;;;;;13.03;100.00;101136.09;4997860;28;20291;-47
2022/10/05 06:49:40;;;;;;;12.98;8.77;;;;;;;13.02;100.00;101125.38;4979221;28;20319;-47
2022/10/05 06:53:08;;;;;;;12.23;8.55;;;;;;;13.08;100.00;101133.19;4947061;28;20284;-47
2022/10/05 06:56:04;;;;;;;11.38;9.05;;;;;;;13.10;100.00;101139.38;4944281;28;20560;-47
2022/10/05 06:58:49;;;;;;;11.55;9.10;;;;;;;13.15;100.00;101137.34;4996354;28;20672;-48
2022/10/05 07:01:24;;;;;;;14.10;9.15;;;;;;;13.16;100.00;101140.00;4998556;28;20679;-48
2022/10/05 07:03:58;;;;;;;13.68;9.23;;;;;;;13.16;100.00;101142.69;5006791;28;20203;-48
2022/10/05 07:06:47;;;;;;;16.50;9.00;;;;;;;13.19;100.00;101145.22;5007117;28;20203;-49
2022/10/05 07:09:23;;;;;;;11.25;8.70;;;;;;;13.20;100.00;101141.56;5001791;28;20208;-48
2022/10/05 07:12:06;;;;;;;10.10;8.45;;;;;;;13.29;100.00;101147.53;5000167;28;20208;-48
2022/10/05 07:14:55;;;;;;;10.27;9.05;;;;;;;13.26;100.00;101161.97;4978027;28;20204;-49
2022/10/05 07:17:41;;;;;;;11.95;8.30;;;;;;;13.26;100.00;101161.09;4997266;28;20192;-50
2022/10/05 07:20:17;;;;;;;12.65;8.50;;;;;;;13.26;100.00;101156.59;5006943;28;20185;-48
2022/10/05 07:23:08;;;;;;;10.88;8.70;;;;;;;13.28;100.00;101162.81;4999020;28;20193;-48
2022/10/05 07:25:53;;;;;;;13.52;9.00;;;;;;;13.30;100.00;101154.69;4996147;28;20651;-48
2022/10/05 07:28:38;;;;;;;11.23;8.55;;;;;;;13.34;100.00;101156.28;4996154;28;20201;-48
2022/10/05 07:31:04;;;;;;;9.60;7.75;;;;;;;13.41;100.00;101152.38;4997568;28;21122;-46
2022/10/05 07:33:40;;;;;;;10.13;8.23;;;;;;;13.45;100.00;101162.06;5000052;28;20297;-47
2022/10/05 07:39:27;;;;;;;9.30;8.00;;;;;;;13.56;100.00;101170.53;5002605;28;20628;-46
2022/10/05 07:42:06;;;;;;;11.00;7.72;;;;;;;13.71;99.81;101147.41;5007211;28;20298;-47
2022/10/05 07:44:55;;;;;;;10.32;8.48;;;;;;;13.69;99.68;101143.06;5005564;28;20176;-49
2022/10/05 07:47:33;;;;;;;10.52;8.30;;;;;;;13.73;99.48;101142.84;4998843;28;20560;-49
2022/10/05 07:50:07;;;;;;;11.13;8.35;;;;;;;13.76;99.24;101133.75;5003882;28;20868;-47
2022/10/05 07:52:45;;;;;;;14.57;8.38;;;;;;;13.84;99.06;101144.13;4997971;28;20554;-48
2022/10/05 07:55:14;;;;;;;14.35;8.40;;;;;;;13.85;99.00;101148.59;4993515;28;20219;-48
2022/10/05 07:57:51;;;;;;;12.65;8.13;;;;;;;13.78;98.84;101139.94;5001123;28;20177;-47
2022/10/05 08:00:20;;;;;;;11.52;8.40;;;;;;;13.80;98.90;101143.44;5003594;28;20184;-47
2022/10/05 08:02:55;;;;;;;11.70;8.27;;;;;;;13.78;98.90;101131.84;5001835;28;20189;-47
2022/10/05 08:05:26;;;;;;;10.32;8.57;;;;;;;13.88;98.89;101135.84;4998992;28;20194;-48
2022/10/05 08:08:10;;;;;;;13.60;8.32;;;;;;;13.77;98.93;101143.56;4991840;28;20318;-48
2022/10/05 08:10:45;;;;;;;9.30;8.35;;;;;;;13.85;99.02;101145.91;4996624;28;20196;-48
2022/10/05 08:13:20;;;;;;;10.15;8.32;;;;;;;13.83;99.16;101145.97;4992042;28;20189;-48
2022/10/05 08:15:50;;;;;;;11.60;8.50;;;;;;;13.83;98.95;101143.28;4991080;28;20177;-47
2022/10/05 08:18:54;;;;;;;10.85;8.43;;;;;;;13.86;99.05;101116.19;5004671;28;20272;-48
2022/10/05 08:21:31;;;;;;;9.57;7.97;;;;;;;13.99;99.00;101117.38;4994478;28;20197;-51
2022/10/05 08:26:58;;;;;;;11.05;8.27;;;;;;;14.10;98.56;101115.97;4729120;23;20256;-51
2022/10/05 08:29:42;;;;;;;11.50;8.30;;;;;;;14.18;98.28;101127.25;5009754;28;20184;-50
2022/10/05 08:32:22;;;;;;;11.70;8.00;;;;;;;14.19;97.90;101123.59;5007935;28;20207;-47
2022/10/05 08:35:00;;;;;;;13.15;8.45;;;;;;;14.13;97.87;101126.63;5014401;28;20839;-50
2022/10/05 08:37:31;;;;;;;15.25;8.60;;;;;;;14.13;97.91;101138.25;5013144;28;20698;-50
2022/10/05 08:40:32;;;;;;;11.73;8.27;;;;;;;14.16;98.08;101121.06;5010851;28;20670;-51
2022/10/05 08:43:08;;;;;;;12.10;8.43;;;;;;;14.20;97.97;101122.66;5005025;28;20215;-53
2022/10/05 08:45:42;;;;;;;13.68;8.73;;;;;;;14.16;98.13;101124.63;5009433;28;20221;-53
2022/10/05 08:48:08;;;;;;;11.30;8.18;;;;;;;14.16;98.27;101123.75;5007877;28;20659;-51
2022/10/05 08:50:51;;;;;;;12.45;8.82;;;;;;;14.15;98.10;101130.09;5010920;28;20217;-48
2022/10/05 08:53:27;;;;;;;11.63;9.07;;;;;;;14.16;98.29;101116.53;5007397;28;20491;-49
2022/10/05 08:56:13;;;;;;;12.38;9.00;;;;;;;14.31;98.47;101117.63;5002010;28;20184;-48
2022/10/05 08:58:50;;;;;;;15.02;8.93;;;;;;;14.34;98.19;101125.56;5007920;28;20202;-50
2022/10/05 09:01:25;;;;;;;8.65;7.70;;;;;;;14.41;98.22;101134.22;5008006;28;20734;-49
2022/10/05 09:04:21;;;;;;;11.30;8.82;;;;;;;14.26;98.01;101125.06;5012965;28;20182;-49
2022/10/05 09:07:04;;;;;;;11.38;8.20;;;;;;;14.36;98.04;101131.72;5004642;28;20176;-48
2022/10/05 09:09:46;;;;;;;10.10;8.98;;;;;;;14.25;98.24;101123.28;5006208;28;20271;-49
2022/10/05 09:12:50;;;;;;;11.70;8.23;;;;;;;14.37;98.14;101135.31;5006550;28;20645;-48
2022/10/05 09:15:24;;;;;;;13.60;8.70;;;;;;;14.54;98.22;101120.97;4988649;28;20250;-46
2022/10/05 09:18:08;;;;;;;9.70;8.25;;;;;;;14.62;97.68;101122.38;5014039;28;20183;-49
2022/10/05 09:20:49;;;;;;;9.52;7.40;;;;;;;14.71;97.34;101115.63;5000952;28;20207;-48
2022/10/05 09:23:32;;;;;;;11.32;8.20;;;;;;;14.90;97.03;101115.59;4983078;28;20278;-49
2022/10/05 09:26:06;;;;;;;12.80;7.82;;;;;;;14.96;96.06;101109.88;5006046;28;20189;-48
2022/10/05 09:29:19;;;;;;;10.90;7.97;;;;;;;14.94;95.31;101103.69;5007403;28;20342;-48
2022/10/05 09:32:16;;;;;;;15.90;8.60;;;;;;;15.01;94.92;101106.94;5012005;28;20602;-49
2022/10/05 09:35:18;;;;;;;18.58;10.63;;;;;;;15.10;94.99;101100.19;5005293;28;20192;-48
2022/10/05 09:38:13;;;;;;;12.07;7.55;;;;;;;14.96;94.77;101096.38;5007551;28;20282;-47
2022/10/05 09:41:19;;;;;;;10.73;7.25;;;;;;;14.94;94.81;101098.28;5015016;28;20276;-48
2022/10/05 09:43:53;;;;;;;8.75;6.97;;;;;;;15.01;94.90;101101.53;5025543;28;20281;-48
2022/10/05 09:46:42;;;;;;;10.15;6.93;;;;;;;14.98;94.94;101102.56;5009582;28;20187;-45
2022/10/05 09:49:11;;;;;;;8.90;7.00;;;;;;;15.01;95.63;101097.00;5009529;28;20593;-44
2022/10/05 09:51:55;;;;;;;11.52;7.32;;;;;;;15.03;94.93;101096.94;5009208;28;20266;-44
2022/10/05 09:55:08;;;;;;;8.82;6.60;;;;;;;14.96;94.62;101095.50;5020560;28;20181;-46
2022/10/05 09:58:01;;;;;;;9.85;6.82;;;;;;;15.18;94.41;101088.03;5001840;28;20270;-46
2022/10/05 10:00:39;;;;;;;9.80;6.85;;;;;;;15.06;94.11;101095.88;5012720;28;20213;-45
2022/10/05 10:03:14;;;;;;;12.02;7.13;;;;;;;15.07;94.10;101097.66;5013807;28;20545;-45
2022/10/05 10:05:58;;;;;;;11.77;6.43;;;;;;;14.99;94.01;101084.56;5009961;28;20542;-44
2022/10/05 10:08:44;;;;;;;8.35;6.88;;;;;;;14.99;94.04;101095.34;5023022;28;20217;-45
2022/10/05 10:11:25;;;;;;;8.60;7.70;;;;;;;14.98;94.05;101085.53;5002181;28;20221;-44
2022/10/05 10:14:11;;;;;;;12.63;7.88;;;;;;;15.01;93.81;101091.59;5003305;28;20183;-44
2022/10/05 10:17:11;;;;;;;8.15;7.15;;;;;;;14.95;93.67;101093.75;5015411;28;20207;-44
2022/10/05 10:19:36;;;;;;;7.65;6.93;;;;;;;14.97;93.92;101086.44;5008789;28;20242;-45
2022/10/05 10:22:04;;;;;;;9.95;7.35;;;;;;;15.01;94.24;101085.34;5010550;28;20208;-47
2022/10/05 10:24:55;;;;;;;11.43;7.53;;;;;;;14.96;94.49;101085.59;4998450;28;20691;-47
2022/10/05 10:27:48;;;;;;;9.40;7.10;;;;;;;15.01;94.32;101093.44;5005817;28;20216;-44
2022/10/05 10:30:25;;;;;;;10.02;7.38;;;;;;;15.05;94.06;101076.13;5015748;28;20185;-45
2022/10/05 10:33:04;;;;;;;8.25;7.13;;;;;;;15.09;94.03;101082.25;4995321;28;20697;-46
2022/10/05 10:35:34;;;;;;;8.57;6.95;;;;;;;15.07;94.02;101079.63;5010559;28;20266;-46
2022/10/05 10:38:22;;;;;;;8.35;6.45;;;;;;;15.23;93.75;101069.75;5007284;28;20184;-48
2022/10/05 10:41:34;;;;;;;9.45;7.38;;;;;;;15.31;93.46;101072.03;5006320;28;20216;-45
2022/10/05 10:44:02;;;;;;;11.00;7.55;;;;;;;15.37;93.22;101069.00;5010341;28;20702;-45
2022/10/05 10:47:01;;;;;;;8.93;6.28;;;;;;;15.42;92.89;101066.94;5013759;28;20198;-44
2022/10/05 10:49:54;;;;;;;9.45;6.93;;;;;;;15.43;92.70;101076.75;5011322;28;20309;-45
2022/10/05 10:52:22;;;;;;;8.20;6.65;;;;;;;15.41;92.55;101061.59;5014782;28;20209;-45
2022/10/05 10:55:03;;;;;;;10.35;7.32;;;;;;;15.41;92.15;101067.00;5006096;28;20587;-45
2022/10/05 10:57:34;;;;;;;8.48;7.03;;;;;;;15.36;92.15;101072.66;5008053;28;20221;-46
2022/10/05 11:00:18;;;;;;;9.38;8.05;;;;;;;15.46;92.05;101067.66;5009832;28;20286;-44
2022/10/05 11:02:53;;;;;;;9.10;7.45;;;;;;;15.54;92.16;101072.59;5009579;28;20212;-44
2022/10/05 11:05:37;;;;;;;8.60;6.75;;;;;;;15.50;91.98;101062.91;5017111;28;20250;-45
2022/10/05 11:08:33;;;;;;;13.68;7.35;;;;;;;15.57;91.60;101067.91;5020244;28;20197;-44
2022/10/05 11:11:07;;;;;;;11.00;7.00;;;;;;;15.61;91.58;101065.91;5011532;28;20236;-45
2022/10/05 11:13:51;;;;;;;10.90;7.45;;;;;;;15.71;91.00;101077.09;5007471;28;20177;-45
2022/10/05 11:16:50;;;;;;;9.60;7.22;;;;;;;15.60;91.05;101062.34;5003481;28;20550;-45
2022/10/05 11:19:40;;;;;;;8.77;7.28;;;;;;;15.50;91.06;101069.19;5016788;28;20208;-45
2022/10/05 11:22:06;;;;;;;7.38;6.60;;;;;;;15.44;91.32;101066.84;5016680;28;20231;-44
2022/10/05 11:24:40;;;;;;;9.02;7.00;;;;;;;15.48;91.65;101065.72;5005573;28;20193;-46
2022/10/05 11:27:46;;;;;;;7.90;6.35;;;;;;;15.54;91.82;101076.16;4997904;28;20298;-46
2022/10/05 11:30:21;;;;;;;12.05;6.82;;;;;;;15.31;92.03;101077.44;5008718;28;20224;-43
2022/10/05 11:33:20;;;;;;;8.48;6.20;;;;;;;15.19;92.03;101067.28;5020339;28;20191;-43
2022/10/05 11:36:08;;;;;;;10.20;7.30;;;;;;;15.19;92.23;101078.97;4991952;28;20220;-46
2022/10/05 11:38:40;;;;;;;7.50;5.18;;;;;;;15.17;91.74;101059.28;5003326;28;20215;-45
2022/10/05 11:41:54;;;;;;;6.68;4.47;;;;;;;15.24;90.78;101063.41;5000743;28;20712;-44
2022/10/05 11:44:47;;;;;;;5.38;4.85;;;;;;;15.27;90.34;101056.97;4989400;28;20200;-44
2022/10/05 11:47:21;;;;;;;5.95;4.32;;;;;;;15.22;89.48;101065.31;5007199;28;20500;-45
2022/10/05 11:49:49;;;;;;;5.10;4.60;;;;;;;15.29;88.86;101063.16;5000434;28;20548;-47
2022/10/05 11:52:37;;;;;;;5.20;4.13;;;;;;;15.19;87.95;101062.75;5001301;28;20213;-45
2022/10/05 11:55:12;;;;;;;5.88;4.55;;;;;;;15.09;87.78;101058.84;4991274;28;20219;-48
2022/10/05 11:57:48;;;;;;;6.80;4.18;;;;;;;15.18;88.36;101054.75;4991303;28;20168;-51
2022/10/05 12:00:21;;;;;;;6.32;4.13;;;;;;;15.16;88.63;101059.38;4991015;28;20251;-44
2022/10/05 12:03:21;;;;;;;4.43;3.53;;;;;;;15.19;88.42;101045.69;4990588;28;20223;-43
2022/10/05 12:06:14;;;;;;;4.88;4.07;;;;;;;15.22;88.42;101041.03;4991077;28;20176;-49
2022/10/05 12:08:49;;;;;;;5.35;4.28;;;;;;;15.22;88.43;101032.91;4991164;28;20212;-48
2022/10/05 12:11:52;;;;;;;6.47;3.95;;;;;;;15.24;88.22;101035.53;4973327;28;20209;-50
2022/10/05 12:15:00;;;;;;;5.00;4.53;;;;;;;15.19;87.67;101043.88;4990761;28;20176;-50
2022/10/05 12:18:08;;;;;;;5.20;4.30;;;;;;;15.28;87.82;101041.63;4990664;28;20305;-44
2022/10/05 12:20:45;;;;;;;5.25;4.75;;;;;;;15.28;87.79;101042.50;4981968;28;20212;-45
2022/10/05 12:23:20;;;;;;;6.28;4.72;;;;;;;15.25;87.82;101040.84;5002683;28;20491;-52
2022/10/05 12:25:59;;;;;;;4.97;4.57;;;;;;;15.29;87.97;101030.75;5010397;28;20238;-47
2022/10/05 12:28:43;;;;;;;6.57;4.50;;;;;;;15.32;88.24;101037.81;5020253;28;20552;-48
2022/10/05 12:31:14;;;;;;;5.32;4.82;;;;;;;15.15;88.34;101039.63;5017642;28;20671;-51
2022/10/05 12:33:58;;;;;;;7.75;5.35;;;;;;;15.16;88.79;101040.47;5013087;28;20196;-47